sensor_id;sensor_type;location;lat;lon;timestamp;pressure;altitude;pressure_sealevel;temperature
27715;BMP280;16051;53.024;8.630;2022-10-16T00:01:25;100903.72;;;13.48
27715;BMP280;16051;53.024;8.630;2022-10-16T00:05:28;100909.19;;;13.42
27715;BMP280;16051;53.024;8.630;2022-10-16T00:09:31;100914.94;;;13.39
27715;BMP280;16051;53.024;8.630;2022-10-16T00:13:35;100913.75;;;13.25
27715;BMP280;16051;53.024;8.630;2022-10-16T00:17:38;100913.91;;;13.16
27715;BMP280;16051;53.024;8.630;2022-10-16T00:21:40;100918.19;;;13.17
27715;BMP280;16051;53.024;8.630;2022-10-16T00:25:44;100919.47;;;13.01
27715;BMP280;16051;53.024;8.630;2022-10-16T00:29:59;100930.06;;;13.03
27715;BMP280;16051;53.024;8.630;2022-10-16T00:34:04;100925.50;;;13.00
27715;BMP280;16051;53.024;8.630;2022-10-16T00:38:06;100931.34;;;13.02
27715;BMP280;16051;53.024;8.630;2022-10-16T00:42:16;100937.00;;;12.93
27715;BMP280;16051;53.024;8.630;2022-10-16T00:46:22;100941.94;;;13.03
27715;BMP280;16051;53.024;8.630;2022-10-16T00:50:30;100937.00;;;12.93
27715;BMP280;16051;53.024;8.630;2022-10-16T00:54:33;100936.16;;;12.87
27715;BMP280;16051;53.024;8.630;2022-10-16T00:58:37;100942.28;;;12.76
27715;BMP280;16051;53.024;8.630;2022-10-16T01:02:39;100942.97;;;12.71
27715;BMP280;16051;53.024;8.630;2022-10-16T01:06:51;100941.56;;;12.61
27715;BMP280;16051;53.024;8.630;2022-10-16T01:11:07;100931.31;;;12.52
27715;BMP280;16051;53.024;8.630;2022-10-16T01:15:21;100932.22;;;12.44
27715;BMP280;16051;53.024;8.630;2022-10-16T01:19:44;100932.78;;;12.33
27715;BMP280;16051;53.024;8.630;2022-10-16T01:24:02;100937.44;;;12.27
27715;BMP280;16051;53.024;8.630;2022-10-16T01:28:11;100941.94;;;12.24
27715;BMP280;16051;53.024;8.630;2022-10-16T01:32:19;100946.53;;;12.27
27715;BMP280;16051;53.024;8.630;2022-10-16T01:36:30;100948.72;;;12.23
27715;BMP280;16051;53.024;8.630;2022-10-16T01:40:39;100949.22;;;12.22
27715;BMP280;16051;53.024;8.630;2022-10-16T01:44:46;100940.59;;;12.20
27715;BMP280;16051;53.024;8.630;2022-10-16T01:48:51;100942.59;;;12.19
27715;BMP280;16051;53.024;8.630;2022-10-16T01:52:57;100932.69;;;12.13
27715;BMP280;16051;53.024;8.630;2022-10-16T01:57:01;100934.88;;;12.09
27715;BMP280;16051;53.024;8.630;2022-10-16T02:01:11;100933.91;;;12.12
27715;BMP280;16051;53.024;8.630;2022-10-16T02:05:34;100931.81;;;12.07
27715;BMP280;16051;53.024;8.630;2022-10-16T02:09:39;100928.75;;;12.05
27715;BMP280;16051;53.024;8.630;2022-10-16T02:13:46;100935.34;;;12.07
27715;BMP280;16051;53.024;8.630;2022-10-16T02:17:51;100943.16;;;12.09
27715;BMP280;16051;53.024;8.630;2022-10-16T02:21:58;100953.13;;;12.15
27715;BMP280;16051;53.024;8.630;2022-10-16T02:26:06;100947.28;;;12.13
27715;BMP280;16051;53.024;8.630;2022-10-16T02:30:19;100943.66;;;12.07
27715;BMP280;16051;53.024;8.630;2022-10-16T02:34:47;100942.13;;;12.06
27715;BMP280;16051;53.024;8.630;2022-10-16T02:38:50;100934.47;;;12.01
27715;BMP280;16051;53.024;8.630;2022-10-16T02:42:54;100936.69;;;11.97
27715;BMP280;16051;53.024;8.630;2022-10-16T02:46:57;100933.63;;;11.95
27715;BMP280;16051;53.024;8.630;2022-10-16T02:51:00;100939.28;;;12.01
27715;BMP280;16051;53.024;8.630;2022-10-16T02:55:03;100941.53;;;12.02
27715;BMP280;16051;53.024;8.630;2022-10-16T02:59:06;100940.50;;;12.00
27715;BMP280;16051;53.024;8.630;2022-10-16T03:03:25;100933.44;;;11.99
27715;BMP280;16051;53.024;8.630;2022-10-16T03:07:29;100946.50;;;11.98
27715;BMP280;16051;53.024;8.630;2022-10-16T03:11:31;100944.50;;;11.99
27715;BMP280;16051;53.024;8.630;2022-10-16T03:15:33;100938.97;;;11.99
27715;BMP280;16051;53.024;8.630;2022-10-16T03:19:35;100943.28;;;12.00
27715;BMP280;16051;53.024;8.630;2022-10-16T03:23:39;100947.09;;;12.02
27715;BMP280;16051;53.024;8.630;2022-10-16T03:27:41;100953.56;;;11.99
27715;BMP280;16051;53.024;8.630;2022-10-16T03:31:43;100961.59;;;11.97
27715;BMP280;16051;53.024;8.630;2022-10-16T03:35:52;100945.19;;;11.94
27715;BMP280;16051;53.024;8.630;2022-10-16T03:39:59;100957.75;;;11.95
27715;BMP280;16051;53.024;8.630;2022-10-16T03:44:01;100947.75;;;11.97
27715;BMP280;16051;53.024;8.630;2022-10-16T03:48:03;100952.03;;;11.98
27715;BMP280;16051;53.024;8.630;2022-10-16T03:52:19;100956.63;;;12.01
27715;BMP280;16051;53.024;8.630;2022-10-16T03:56:22;100964.75;;;12.05
27715;BMP280;16051;53.024;8.630;2022-10-16T04:00:24;100961.41;;;12.01
27715;BMP280;16051;53.024;8.630;2022-10-16T04:04:27;100968.94;;;12.00
27715;BMP280;16051;53.024;8.630;2022-10-16T04:08:29;100980.78;;;12.01
27715;BMP280;16051;53.024;8.630;2022-10-16T04:12:32;100989.09;;;12.01
27715;BMP280;16051;53.024;8.630;2022-10-16T04:16:52;100998.25;;;12.07
27715;BMP280;16051;53.024;8.630;2022-10-16T04:20:54;100991.97;;;12.06
27715;BMP280;16051;53.024;8.630;2022-10-16T04:24:57;100978.22;;;12.12
27715;BMP280;16051;53.024;8.630;2022-10-16T04:29:00;100964.19;;;12.15
27715;BMP280;16051;53.024;8.630;2022-10-16T04:33:02;100966.00;;;12.18
27715;BMP280;16051;53.024;8.630;2022-10-16T04:37:05;100969.38;;;12.22
27715;BMP280;16051;53.024;8.630;2022-10-16T04:41:08;100972.59;;;12.21
27715;BMP280;16051;53.024;8.630;2022-10-16T04:45:11;100976.59;;;12.20
27715;BMP280;16051;53.024;8.630;2022-10-16T04:49:13;100981.66;;;12.21
27715;BMP280;16051;53.024;8.630;2022-10-16T04:53:16;100979.19;;;12.23
27715;BMP280;16051;53.024;8.630;2022-10-16T04:57:18;100987.50;;;12.23
27715;BMP280;16051;53.024;8.630;2022-10-16T05:01:22;100987.78;;;12.25
27715;BMP280;16051;53.024;8.630;2022-10-16T05:05:24;100997.91;;;12.28
27715;BMP280;16051;53.024;8.630;2022-10-16T05:09:26;101002.50;;;12.31
27715;BMP280;16051;53.024;8.630;2022-10-16T05:13:28;100999.84;;;12.37
27715;BMP280;16051;53.024;8.630;2022-10-16T05:17:32;100988.25;;;12.39
27715;BMP280;16051;53.024;8.630;2022-10-16T05:21:34;101012.72;;;12.40
27715;BMP280;16051;53.024;8.630;2022-10-16T05:25:36;101018.66;;;12.48
27715;BMP280;16051;53.024;8.630;2022-10-16T05:29:44;101025.06;;;12.54
27715;BMP280;16051;53.024;8.630;2022-10-16T05:33:48;101035.09;;;12.51
27715;BMP280;16051;53.024;8.630;2022-10-16T05:37:50;101024.00;;;12.51
27715;BMP280;16051;53.024;8.630;2022-10-16T05:41:54;101029.91;;;12.59
27715;BMP280;16051;53.024;8.630;2022-10-16T05:45:57;101028.09;;;12.56
27715;BMP280;16051;53.024;8.630;2022-10-16T05:50:16;101037.75;;;12.60
27715;BMP280;16051;53.024;8.630;2022-10-16T05:54:18;101034.13;;;12.54
27715;BMP280;16051;53.024;8.630;2022-10-16T05:58:21;101034.91;;;12.55
27715;BMP280;16051;53.024;8.630;2022-10-16T06:02:23;101043.88;;;12.50
27715;BMP280;16051;53.024;8.630;2022-10-16T06:06:28;101051.03;;;12.56
27715;BMP280;16051;53.024;8.630;2022-10-16T06:10:30;101053.22;;;12.52
27715;BMP280;16051;53.024;8.630;2022-10-16T06:14:32;101067.84;;;12.53
27715;BMP280;16051;53.024;8.630;2022-10-16T06:18:35;101071.00;;;12.60
27715;BMP280;16051;53.024;8.630;2022-10-16T06:22:39;101070.03;;;12.63
27715;BMP280;16051;53.024;8.630;2022-10-16T06:26:41;101066.22;;;12.61
27715;BMP280;16051;53.024;8.630;2022-10-16T06:30:43;101071.59;;;12.64
27715;BMP280;16051;53.024;8.630;2022-10-16T06:34:46;101077.88;;;12.65
27715;BMP280;16051;53.024;8.630;2022-10-16T06:38:56;101088.09;;;12.59
27715;BMP280;16051;53.024;8.630;2022-10-16T06:42:58;101096.06;;;12.66
27715;BMP280;16051;53.024;8.630;2022-10-16T06:47:00;101103.59;;;12.65
27715;BMP280;16051;53.024;8.630;2022-10-16T06:51:28;101120.25;;;12.80
27715;BMP280;16051;53.024;8.630;2022-10-16T06:55:34;101130.06;;;12.81
27715;BMP280;16051;53.024;8.630;2022-10-16T06:59:36;101128.00;;;12.91
27715;BMP280;16051;53.024;8.630;2022-10-16T07:03:39;101128.56;;;12.95
27715;BMP280;16051;53.024;8.630;2022-10-16T07:08:19;101131.19;;;13.13
27715;BMP280;16051;53.024;8.630;2022-10-16T07:12:22;101140.91;;;13.23
27715;BMP280;16051;53.024;8.630;2022-10-16T07:16:28;101150.19;;;13.35
27715;BMP280;16051;53.024;8.630;2022-10-16T07:20:30;101152.09;;;13.43
27715;BMP280;16051;53.024;8.630;2022-10-16T07:24:32;101165.84;;;13.52
27715;BMP280;16051;53.024;8.630;2022-10-16T07:28:43;101156.06;;;13.57
27715;BMP280;16051;53.024;8.630;2022-10-16T07:32:45;101164.88;;;13.70
27715;BMP280;16051;53.024;8.630;2022-10-16T07:36:49;101178.75;;;13.70
27715;BMP280;16051;53.024;8.630;2022-10-16T07:40:57;101177.56;;;13.76
27715;BMP280;16051;53.024;8.630;2022-10-16T07:45:01;101185.91;;;13.76
27715;BMP280;16051;53.024;8.630;2022-10-16T07:49:03;101175.97;;;13.70
27715;BMP280;16051;53.024;8.630;2022-10-16T07:53:05;101199.69;;;13.71
27715;BMP280;16051;53.024;8.630;2022-10-16T07:57:07;101203.97;;;13.87
27715;BMP280;16051;53.024;8.630;2022-10-16T08:01:45;101205.78;;;13.90
27715;BMP280;16051;53.024;8.630;2022-10-16T08:05:47;101195.44;;;13.90
27715;BMP280;16051;53.024;8.630;2022-10-16T08:09:59;101208.66;;;13.95
27715;BMP280;16051;53.024;8.630;2022-10-16T08:14:01;101223.47;;;14.07
27715;BMP280;16051;53.024;8.630;2022-10-16T08:18:05;101226.72;;;14.05
27715;BMP280;16051;53.024;8.630;2022-10-16T08:22:25;101240.59;;;14.05
27715;BMP280;16051;53.024;8.630;2022-10-16T08:26:27;101233.88;;;14.12
27715;BMP280;16051;53.024;8.630;2022-10-16T08:30:45;101247.50;;;14.30
27715;BMP280;16051;53.024;8.630;2022-10-16T08:34:49;101244.91;;;14.41
27715;BMP280;16051;53.024;8.630;2022-10-16T08:38:51;101248.00;;;14.43
27715;BMP280;16051;53.024;8.630;2022-10-16T08:43:34;101257.72;;;14.53
27715;BMP280;16051;53.024;8.630;2022-10-16T08:48:00;101265.69;;;14.66
27715;BMP280;16051;53.024;8.630;2022-10-16T08:52:16;101276.41;;;14.73
27715;BMP280;16051;53.024;8.630;2022-10-16T08:56:19;101271.34;;;14.71
27715;BMP280;16051;53.024;8.630;2022-10-16T09:00:21;101290.88;;;14.77
27715;BMP280;16051;53.024;8.630;2022-10-16T09:04:54;101284.66;;;14.88
27715;BMP280;16051;53.024;8.630;2022-10-16T09:09:26;101294.28;;;14.87
27715;BMP280;16051;53.024;8.630;2022-10-16T09:13:43;101290.94;;;15.03
27715;BMP280;16051;53.024;8.630;2022-10-16T09:17:57;101294.78;;;15.31
27715;BMP280;16051;53.024;8.630;2022-10-16T09:22:14;101305.81;;;15.46
27715;BMP280;16051;53.024;8.630;2022-10-16T09:26:31;101306.00;;;15.62
27715;BMP280;16051;53.024;8.630;2022-10-16T09:30:33;101313.97;;;15.75
27715;BMP280;16051;53.024;8.630;2022-10-16T09:34:53;101315.81;;;15.84
27715;BMP280;16051;53.024;8.630;2022-10-16T09:39:06;101311.41;;;16.03
27715;BMP280;16051;53.024;8.630;2022-10-16T09:43:22;101306.13;;;16.10
27715;BMP280;16051;53.024;8.630;2022-10-16T09:47:36;101311.06;;;16.27
27715;BMP280;16051;53.024;8.630;2022-10-16T09:51:41;101319.22;;;16.30
27715;BMP280;16051;53.024;8.630;2022-10-16T09:55:51;101317.75;;;16.40
27715;BMP280;16051;53.024;8.630;2022-10-16T09:59:57;101322.22;;;16.63
27715;BMP280;16051;53.024;8.630;2022-10-16T10:03:59;101325.09;;;16.80
27715;BMP280;16051;53.024;8.630;2022-10-16T10:08:06;101332.03;;;17.01
27715;BMP280;16051;53.024;8.630;2022-10-16T10:12:19;101340.53;;;17.46
27715;BMP280;16051;53.024;8.630;2022-10-16T10:16:25;101351.31;;;17.97
27715;BMP280;16051;53.024;8.630;2022-10-16T10:20:30;101373.41;;;18.40
27715;BMP280;16051;53.024;8.630;2022-10-16T10:24:33;101366.53;;;18.35
27715;BMP280;16051;53.024;8.630;2022-10-16T10:28:56;101360.09;;;18.90
27715;BMP280;16051;53.024;8.630;2022-10-16T10:33:17;101368.50;;;19.48
27715;BMP280;16051;53.024;8.630;2022-10-16T10:37:51;101383.72;;;19.99
27715;BMP280;16051;53.024;8.630;2022-10-16T10:42:20;101375.38;;;19.47
27715;BMP280;16051;53.024;8.630;2022-10-16T10:46:34;101381.13;;;19.13
27715;BMP280;16051;53.024;8.630;2022-10-16T10:50:57;101377.75;;;19.26
27715;BMP280;16051;53.024;8.630;2022-10-16T10:55:16;101384.50;;;19.94
27715;BMP280;16051;53.024;8.630;2022-10-16T11:04:35;101390.34;;;20.61
27715;BMP280;16051;53.024;8.630;2022-10-16T11:08:46;101392.59;;;21.11
27715;BMP280;16051;53.024;8.630;2022-10-16T11:12:55;101402.63;;;21.25
27715;BMP280;16051;53.024;8.630;2022-10-16T11:17:12;101411.31;;;21.65
27715;BMP280;16051;53.024;8.630;2022-10-16T11:21:19;101417.84;;;21.73
27715;BMP280;16051;53.024;8.630;2022-10-16T11:25:28;101428.75;;;21.39
27715;BMP280;16051;53.024;8.630;2022-10-16T11:29:32;101421.25;;;21.47
27715;BMP280;16051;53.024;8.630;2022-10-16T11:33:46;101420.78;;;21.43
27715;BMP280;16051;53.024;8.630;2022-10-16T11:37:51;101426.56;;;21.07
27715;BMP280;16051;53.024;8.630;2022-10-16T11:42:04;101428.16;;;21.03
27715;BMP280;16051;53.024;8.630;2022-10-16T11:46:14;101436.59;;;21.46
27715;BMP280;16051;53.024;8.630;2022-10-16T11:50:44;101452.06;;;20.61
27715;BMP280;16051;53.024;8.630;2022-10-16T11:54:52;101455.34;;;20.89
27715;BMP280;16051;53.024;8.630;2022-10-16T11:59:03;101456.38;;;21.16
27715;BMP280;16051;53.024;8.630;2022-10-16T12:03:17;101444.06;;;20.41
27715;BMP280;16051;53.024;8.630;2022-10-16T12:07:27;101465.50;;;20.68
27715;BMP280;16051;53.024;8.630;2022-10-16T12:11:38;101458.63;;;19.98
27715;BMP280;16051;53.024;8.630;2022-10-16T12:15:43;101470.50;;;19.75
27715;BMP280;16051;53.024;8.630;2022-10-16T12:20:20;101478.25;;;19.46
27715;BMP280;16051;53.024;8.630;2022-10-16T12:24:39;101485.34;;;19.58
27715;BMP280;16051;53.024;8.630;2022-10-16T12:28:49;101491.28;;;19.96
27715;BMP280;16051;53.024;8.630;2022-10-16T12:33:01;101501.13;;;19.61
27715;BMP280;16051;53.024;8.630;2022-10-16T12:37:19;101503.72;;;19.43
27715;BMP280;16051;53.024;8.630;2022-10-16T12:41:28;101513.72;;;19.10
27715;BMP280;16051;53.024;8.630;2022-10-16T12:45:44;101523.09;;;19.30
27715;BMP280;16051;53.024;8.630;2022-10-16T12:49:52;101529.16;;;19.50
27715;BMP280;16051;53.024;8.630;2022-10-16T12:54:00;101520.00;;;19.50
27715;BMP280;16051;53.024;8.630;2022-10-16T12:58:19;101521.44;;;20.20
27715;BMP280;16051;53.024;8.630;2022-10-16T13:02:52;101514.72;;;20.39
27715;BMP280;16051;53.024;8.630;2022-10-16T13:07:18;101521.00;;;20.10
27715;BMP280;16051;53.024;8.630;2022-10-16T13:11:35;101529.03;;;19.89
27715;BMP280;16051;53.024;8.630;2022-10-16T13:16:11;101555.38;;;19.64
27715;BMP280;16051;53.024;8.630;2022-10-16T13:20:37;101547.78;;;19.26
27715;BMP280;16051;53.024;8.630;2022-10-16T13:25:00;101551.34;;;19.43
27715;BMP280;16051;53.024;8.630;2022-10-16T13:29:05;101559.44;;;20.21
27715;BMP280;16051;53.024;8.630;2022-10-16T13:33:18;101562.47;;;20.23
27715;BMP280;16051;53.024;8.630;2022-10-16T13:37:24;101568.16;;;20.88
27715;BMP280;16051;53.024;8.630;2022-10-16T13:41:27;101573.56;;;21.40
27715;BMP280;16051;53.024;8.630;2022-10-16T13:45:37;101574.69;;;21.55
27715;BMP280;16051;53.024;8.630;2022-10-16T13:49:39;101569.25;;;21.63
27715;BMP280;16051;53.024;8.630;2022-10-16T13:53:42;101569.47;;;21.65
27715;BMP280;16051;53.024;8.630;2022-10-16T13:57:46;101584.69;;;21.51
27715;BMP280;16051;53.024;8.630;2022-10-16T14:01:53;101589.13;;;21.65
27715;BMP280;16051;53.024;8.630;2022-10-16T14:06:19;101588.91;;;21.63
27715;BMP280;16051;53.024;8.630;2022-10-16T14:10:27;101596.97;;;21.72
27715;BMP280;16051;53.024;8.630;2022-10-16T14:14:40;101601.84;;;21.47
27715;BMP280;16051;53.024;8.630;2022-10-16T14:18:51;101598.31;;;21.17
27715;BMP280;16051;53.024;8.630;2022-10-16T14:23:04;101609.69;;;20.95
27715;BMP280;16051;53.024;8.630;2022-10-16T14:27:30;101616.25;;;20.73
27715;BMP280;16051;53.024;8.630;2022-10-16T14:31:34;101619.06;;;20.32
27715;BMP280;16051;53.024;8.630;2022-10-16T14:35:39;101613.72;;;20.29
27715;BMP280;16051;53.024;8.630;2022-10-16T14:39:51;101620.63;;;20.17
27715;BMP280;16051;53.024;8.630;2022-10-16T14:43:56;101615.41;;;19.85
27715;BMP280;16051;53.024;8.630;2022-10-16T14:48:05;101611.13;;;19.73
27715;BMP280;16051;53.024;8.630;2022-10-16T14:52:14;101622.84;;;19.66
27715;BMP280;16051;53.024;8.630;2022-10-16T14:56:48;101627.47;;;19.47
27715;BMP280;16051;53.024;8.630;2022-10-16T15:00:53;101629.28;;;19.44
27715;BMP280;16051;53.024;8.630;2022-10-16T15:05:14;101632.56;;;19.32
27715;BMP280;16051;53.024;8.630;2022-10-16T15:09:32;101644.31;;;19.13
27715;BMP280;16051;53.024;8.630;2022-10-16T15:13:34;101654.97;;;19.09
27715;BMP280;16051;53.024;8.630;2022-10-16T15:17:39;101662.63;;;19.09
27715;BMP280;16051;53.024;8.630;2022-10-16T15:21:54;101654.19;;;19.03
27715;BMP280;16051;53.024;8.630;2022-10-16T15:25:57;101662.59;;;18.87
27715;BMP280;16051;53.024;8.630;2022-10-16T15:30:01;101654.16;;;18.81
27715;BMP280;16051;53.024;8.630;2022-10-16T15:34:03;101660.78;;;18.73
27715;BMP280;16051;53.024;8.630;2022-10-16T15:38:11;101665.34;;;18.59
27715;BMP280;16051;53.024;8.630;2022-10-16T15:42:16;101669.88;;;18.51
27715;BMP280;16051;53.024;8.630;2022-10-16T15:46:37;101662.69;;;18.39
27715;BMP280;16051;53.024;8.630;2022-10-16T15:50:41;101658.09;;;18.36
27715;BMP280;16051;53.024;8.630;2022-10-16T15:54:45;101648.91;;;18.18
27715;BMP280;16051;53.024;8.630;2022-10-16T15:58:49;101650.88;;;18.07
27715;BMP280;16051;53.024;8.630;2022-10-16T16:02:53;101655.66;;;17.95
27715;BMP280;16051;53.024;8.630;2022-10-16T16:06:57;101660.09;;;17.76
27715;BMP280;16051;53.024;8.630;2022-10-16T16:11:04;101679.72;;;17.50
27715;BMP280;16051;53.024;8.630;2022-10-16T16:15:08;101682.34;;;17.28
27715;BMP280;16051;53.024;8.630;2022-10-16T16:19:14;101691.28;;;17.06
27715;BMP280;16051;53.024;8.630;2022-10-16T16:23:26;101693.03;;;16.78
27715;BMP280;16051;53.024;8.630;2022-10-16T16:27:30;101695.56;;;16.56
27715;BMP280;16051;53.024;8.630;2022-10-16T16:31:49;101704.75;;;16.42
27715;BMP280;16051;53.024;8.630;2022-10-16T16:35:59;101713.47;;;16.09
27715;BMP280;16051;53.024;8.630;2022-10-16T16:40:01;101714.28;;;15.95
27715;BMP280;16051;53.024;8.630;2022-10-16T16:44:07;101715.16;;;15.86
27715;BMP280;16051;53.024;8.630;2022-10-16T16:48:13;101729.97;;;15.63
27715;BMP280;16051;53.024;8.630;2022-10-16T16:52:15;101734.66;;;15.42
27715;BMP280;16051;53.024;8.630;2022-10-16T16:56:20;101736.03;;;15.32
27715;BMP280;16051;53.024;8.630;2022-10-16T17:00:25;101757.72;;;15.28
27715;BMP280;16051;53.024;8.630;2022-10-16T17:04:58;101761.81;;;15.03
27715;BMP280;16051;53.024;8.630;2022-10-16T17:09:03;101761.50;;;14.87
27715;BMP280;16051;53.024;8.630;2022-10-16T17:13:05;101761.66;;;14.83
27715;BMP280;16051;53.024;8.630;2022-10-16T17:17:09;101763.38;;;14.81
27715;BMP280;16051;53.024;8.630;2022-10-16T17:21:11;101768.03;;;14.60
27715;BMP280;16051;53.024;8.630;2022-10-16T17:25:14;101768.16;;;14.42
27715;BMP280;16051;53.024;8.630;2022-10-16T17:29:18;101781.53;;;14.19
27715;BMP280;16051;53.024;8.630;2022-10-16T17:33:21;101772.31;;;14.13
27715;BMP280;16051;53.024;8.630;2022-10-16T17:37:36;101779.53;;;14.11
27715;BMP280;16051;53.024;8.630;2022-10-16T17:41:49;101800.28;;;14.01
27715;BMP280;16051;53.024;8.630;2022-10-16T17:45:54;101787.06;;;13.87
27715;BMP280;16051;53.024;8.630;2022-10-16T17:49:58;101802.34;;;13.91
27715;BMP280;16051;53.024;8.630;2022-10-16T17:54:02;101818.72;;;13.71
27715;BMP280;16051;53.024;8.630;2022-10-16T17:58:06;101824.00;;;13.69
27715;BMP280;16051;53.024;8.630;2022-10-16T18:02:09;101826.97;;;13.56
27715;BMP280;16051;53.024;8.630;2022-10-16T18:06:14;101837.59;;;13.58
27715;BMP280;16051;53.024;8.630;2022-10-16T18:10:17;101840.53;;;13.54
27715;BMP280;16051;53.024;8.630;2022-10-16T18:14:52;101835.31;;;13.38
27715;BMP280;16051;53.024;8.630;2022-10-16T18:19:04;101827.72;;;13.39
27715;BMP280;16051;53.024;8.630;2022-10-16T18:23:08;101828.22;;;13.28
27715;BMP280;16051;53.024;8.630;2022-10-16T18:27:13;101836.22;;;13.08
27715;BMP280;16051;53.024;8.630;2022-10-16T18:31:17;101834.66;;;12.98
27715;BMP280;16051;53.024;8.630;2022-10-16T18:35:45;101850.84;;;12.90
27715;BMP280;16051;53.024;8.630;2022-10-16T18:39:49;101861.44;;;12.92
27715;BMP280;16051;53.024;8.630;2022-10-16T18:43:52;101869.16;;;12.97
27715;BMP280;16051;53.024;8.630;2022-10-16T18:47:56;101880.13;;;13.00
27715;BMP280;16051;53.024;8.630;2022-10-16T18:52:06;101874.25;;;12.98
27715;BMP280;16051;53.024;8.630;2022-10-16T18:56:11;101876.88;;;12.93
27715;BMP280;16051;53.024;8.630;2022-10-16T19:00:18;101870.69;;;12.89
27715;BMP280;16051;53.024;8.630;2022-10-16T19:04:20;101872.69;;;12.79
27715;BMP280;16051;53.024;8.630;2022-10-16T19:08:23;101873.28;;;12.74
27715;BMP280;16051;53.024;8.630;2022-10-16T19:12:33;101858.03;;;12.69
27715;BMP280;16051;53.024;8.630;2022-10-16T19:16:35;101865.41;;;12.63
27715;BMP280;16051;53.024;8.630;2022-10-16T19:20:40;101872.19;;;12.62
27715;BMP280;16051;53.024;8.630;2022-10-16T19:24:48;101869.88;;;12.61
27715;BMP280;16051;53.024;8.630;2022-10-16T19:28:53;101860.63;;;12.55
27715;BMP280;16051;53.024;8.630;2022-10-16T19:32:57;101861.06;;;12.53
27715;BMP280;16051;53.024;8.630;2022-10-16T19:37:02;101865.69;;;12.47
27715;BMP280;16051;53.024;8.630;2022-10-16T19:41:19;101867.81;;;12.52
27715;BMP280;16051;53.024;8.630;2022-10-16T19:45:23;101865.38;;;12.54
27715;BMP280;16051;53.024;8.630;2022-10-16T19:49:26;101884.31;;;12.56
27715;BMP280;16051;53.024;8.630;2022-10-16T19:53:28;101889.50;;;12.45
27715;BMP280;16051;53.024;8.630;2022-10-16T19:57:33;101888.13;;;12.40
27715;BMP280;16051;53.024;8.630;2022-10-16T20:01:37;101891.03;;;12.37
27715;BMP280;16051;53.024;8.630;2022-10-16T20:05:39;101882.41;;;12.34
27715;BMP280;16051;53.024;8.630;2022-10-16T20:09:41;101896.09;;;12.38
27715;BMP280;16051;53.024;8.630;2022-10-16T20:13:44;101887.94;;;12.34
27715;BMP280;16051;53.024;8.630;2022-10-16T20:17:47;101907.53;;;12.40
27715;BMP280;16051;53.024;8.630;2022-10-16T20:21:50;101898.44;;;12.40
27715;BMP280;16051;53.024;8.630;2022-10-16T20:25:53;101907.69;;;12.46
27715;BMP280;16051;53.024;8.630;2022-10-16T20:29:55;101920.19;;;12.50
27715;BMP280;16051;53.024;8.630;2022-10-16T20:34:03;101922.81;;;12.54
27715;BMP280;16051;53.024;8.630;2022-10-16T20:38:06;101916.47;;;12.44
27715;BMP280;16051;53.024;8.630;2022-10-16T20:42:08;101921.03;;;12.38
27715;BMP280;16051;53.024;8.630;2022-10-16T20:46:14;101963.25;;;12.42
27715;BMP280;16051;53.024;8.630;2022-10-16T20:50:18;101955.84;;;12.39
27715;BMP280;16051;53.024;8.630;2022-10-16T20:54:20;101943.03;;;12.32
27715;BMP280;16051;53.024;8.630;2022-10-16T20:58:22;101941.78;;;12.33
27715;BMP280;16051;53.024;8.630;2022-10-16T21:02:25;101947.59;;;12.26
27715;BMP280;16051;53.024;8.630;2022-10-16T21:06:31;101939.63;;;12.28
27715;BMP280;16051;53.024;8.630;2022-10-16T21:10:33;101933.75;;;12.26
27715;BMP280;16051;53.024;8.630;2022-10-16T21:14:35;101938.53;;;12.26
27715;BMP280;16051;53.024;8.630;2022-10-16T21:18:48;101961.53;;;12.36
27715;BMP280;16051;53.024;8.630;2022-10-16T21:22:52;101953.00;;;12.30
27715;BMP280;16051;53.024;8.630;2022-10-16T21:26:54;101954.44;;;12.34
27715;BMP280;16051;53.024;8.630;2022-10-16T21:30:56;101963.22;;;12.33
27715;BMP280;16051;53.024;8.630;2022-10-16T21:34:58;101970.13;;;12.38
27715;BMP280;16051;53.024;8.630;2022-10-16T21:39:04;101964.78;;;12.43
27715;BMP280;16051;53.024;8.630;2022-10-16T21:43:06;101949.59;;;12.48
27715;BMP280;16051;53.024;8.630;2022-10-16T21:47:10;101937.25;;;12.49
27715;BMP280;16051;53.024;8.630;2022-10-16T21:51:13;101928.03;;;12.52
27715;BMP280;16051;53.024;8.630;2022-10-16T21:55:17;101937.84;;;12.44
27715;BMP280;16051;53.024;8.630;2022-10-16T21:59:19;101934.91;;;12.38
27715;BMP280;16051;53.024;8.630;2022-10-16T22:03:22;101920.19;;;12.50
27715;BMP280;16051;53.024;8.630;2022-10-16T22:07:24;101908.47;;;12.55
27715;BMP280;16051;53.024;8.630;2022-10-16T22:11:30;101903.56;;;12.59
27715;BMP280;16051;53.024;8.630;2022-10-16T22:15:36;101895.13;;;12.63
27715;BMP280;16051;53.024;8.630;2022-10-16T22:19:38;101878.47;;;12.63
27715;BMP280;16051;53.024;8.630;2022-10-16T22:23:40;101888.50;;;12.60
27715;BMP280;16051;53.024;8.630;2022-10-16T22:27:44;101885.13;;;12.65
27715;BMP280;16051;53.024;8.630;2022-10-16T22:31:50;101882.06;;;12.72
27715;BMP280;16051;53.024;8.630;2022-10-16T22:35:52;101873.59;;;12.76
27715;BMP280;16051;53.024;8.630;2022-10-16T22:39:55;101868.50;;;12.74
27715;BMP280;16051;53.024;8.630;2022-10-16T22:43:58;101872.34;;;12.77
27715;BMP280;16051;53.024;8.630;2022-10-16T22:48:00;101873.28;;;12.74
27715;BMP280;16051;53.024;8.630;2022-10-16T22:52:03;101877.16;;;12.76
27715;BMP280;16051;53.024;8.630;2022-10-16T22:56:05;101875.91;;;12.77
27715;BMP280;16051;53.024;8.630;2022-10-16T23:00:14;101867.13;;;12.79
27715;BMP280;16051;53.024;8.630;2022-10-16T23:04:19;101864.06;;;12.86
27715;BMP280;16051;53.024;8.630;2022-10-16T23:08:21;101851.59;;;12.91
27715;BMP280;16051;53.024;8.630;2022-10-16T23:12:28;101853.59;;;12.99
27715;BMP280;16051;53.024;8.630;2022-10-16T23:16:31;101849.44;;;12.86
27715;BMP280;16051;53.024;8.630;2022-10-16T23:20:34;101861.59;;;12.88
27715;BMP280;16051;53.024;8.630;2022-10-16T23:24:53;101849.91;;;12.84
27715;BMP280;16051;53.024;8.630;2022-10-16T23:28:57;101862.06;;;12.87
27715;BMP280;16051;53.024;8.630;2022-10-16T23:33:00;101844.06;;;12.91